Time;durP1;ratioP1;P1;durP2;ratioP2;P2;SDS_P1;SDS_P2;PMS_P1;PMS_P2;Temp;Humidity;BMP_temperature;BMP_pressure;BME280_temperature;BME280_humidity;BME280_pressure;Samples;Min_cycle;Max_cycle;Signal;HPM_P1;HPM_P2
2022/10/22 00:01:42;;;;;;;13.83;11.50;;;;;;;11.54;65.88;95369.13;5113453;28;20200;-85
2022/10/22 00:04:08;;;;;;;18.73;12.17;;;;;;;12.24;65.54;95481.19;5114095;28;20310;-85
2022/10/22 00:06:35;;;;;;;19.00;12.80;;;;;;;12.23;65.54;95482.13;5114715;28;20189;-85
2022/10/22 00:09:02;;;;;;;16.80;11.53;;;;;;;12.22;65.58;95485.63;5113877;28;20663;-84
2022/10/22 00:11:30;;;;;;;16.50;11.80;;;;;;;12.21;65.59;95488.31;5116380;28;20181;-84
2022/10/22 00:13:58;;;;;;;14.90;10.90;;;;;;;11.10;65.42;95307.00;5113868;28;20204;-84
2022/10/22 00:16:25;;;;;;;14.50;10.37;;;;;;;12.19;65.45;95491.00;5113609;28;20180;-84
2022/10/22 00:18:52;;;;;;;15.57;11.53;;;;;;;12.17;65.60;95477.50;5113087;28;20663;-84
2022/10/22 00:21:18;;;;;;;15.10;11.70;;;;;;;10.90;65.54;95288.16;5112850;28;20189;-84
2022/10/22 00:23:45;;;;;;;15.57;11.87;;;;;;;11.64;65.34;95399.91;5113514;28;20200;-84
2022/10/22 00:26:12;;;;;;;15.80;11.10;;;;;;;12.14;65.67;95488.03;5113808;28;20193;-84
2022/10/22 00:28:41;;;;;;;15.67;10.80;;;;;;;11.94;65.69;95448.66;5114660;28;20239;-85
2022/10/22 00:31:08;;;;;;;18.47;12.80;;;;;;;11.07;65.58;95297.03;5114915;28;20212;-84
2022/10/22 00:33:35;;;;;;;16.07;11.87;;;;;;;11.90;65.63;95426.78;5114063;28;20596;-84
2022/10/22 00:36:01;;;;;;;15.27;10.83;;;;;;;12.10;65.56;95463.56;5114442;28;20215;-84
2022/10/22 00:38:28;;;;;;;13.00;10.53;;;;;;;11.92;65.78;95442.03;5114539;28;20682;-84
2022/10/22 00:40:55;;;;;;;15.23;11.50;;;;;;;11.58;65.52;95379.94;5114521;28;20217;-85
2022/10/22 00:43:22;;;;;;;13.03;11.07;;;;;;;12.06;65.62;95457.09;5114215;28;20277;-85
2022/10/22 00:45:50;;;;;;;13.70;10.83;;;;;;;11.75;65.48;95418.59;5114275;28;20189;-85
2022/10/22 00:48:21;;;;;;;14.27;10.70;;;;;;;12.04;65.84;95474.31;5112343;28;20282;-83
2022/10/22 00:50:54;;;;;;;16.00;10.47;;;;;;;12.02;65.62;95479.59;5113575;28;20219;-85
2022/10/22 00:53:24;;;;;;;13.90;11.17;;;;;;;11.85;65.62;95435.78;5112955;28;20196;-83
2022/10/22 00:55:53;;;;;;;14.30;10.87;;;;;;;11.99;65.77;95474.72;5112970;27;20208;-85
2022/10/22 00:58:22;;;;;;;12.53;10.53;;;;;;;11.99;65.82;95468.78;5112303;28;20200;-86
2022/10/22 01:00:51;;;;;;;14.60;10.60;;;;;;;11.96;65.71;95456.19;5112104;28;20197;-83
2022/10/22 01:03:18;;;;;;;15.27;11.07;;;;;;;11.97;65.74;95457.84;5113599;28;20563;-85
2022/10/22 01:05:57;;;;;;;17.73;11.00;;;;;;;11.96;65.93;95451.06;5112866;28;20204;-85
2022/10/22 01:08:36;;;;;;;14.03;11.00;;;;;;;11.94;65.97;95442.72;5112658;28;20310;-83
2022/10/22 01:11:16;;;;;;;17.93;11.40;;;;;;;11.93;65.92;95435.97;5113710;28;20639;-83
2022/10/22 01:13:54;;;;;;;16.73;10.93;;;;;;;11.92;65.94;95431.78;5111812;28;20189;-85
2022/10/22 01:16:31;;;;;;;14.20;10.43;;;;;;;11.54;65.73;95372.50;5111868;28;20184;-84
2022/10/22 01:19:11;;;;;;;13.60;10.73;;;;;;;11.18;65.85;95320.00;5111230;28;20197;-84
2022/10/22 01:21:44;;;;;;;15.27;11.37;;;;;;;11.15;66.04;95316.88;5111967;28;20193;-85
2022/10/22 01:24:40;;;;;;;13.43;10.43;;;;;;;11.85;66.09;95421.22;5110638;28;20196;-84
2022/10/22 01:27:26;;;;;;;15.97;10.83;;;;;;;11.36;65.92;95347.59;5029031;28;20227;-85
2022/10/22 01:30:00;;;;;;;16.13;10.27;;;;;;;11.83;66.05;95415.44;5029061;28;20219;-83
2022/10/22 01:32:30;;;;;;;12.27;10.10;;;;;;;11.67;66.21;95386.84;5028899;28;20286;-85
2022/10/22 01:35:01;;;;;;;12.97;10.53;;;;;;;11.72;66.17;95397.53;5028583;28;20199;-86
2022/10/22 01:37:34;;;;;;;13.00;10.23;;;;;;;11.65;66.12;95389.53;5028548;28;20687;-86
2022/10/22 01:40:02;;;;;;;13.53;10.40;;;;;;;11.61;66.11;95380.47;5028740;28;20188;-85
2022/10/22 01:42:29;;;;;;;12.37;10.27;;;;;;;11.58;65.85;95373.06;5028899;28;20206;-84
2022/10/22 01:44:57;;;;;;;13.57;11.30;;;;;;;10.79;65.90;95247.28;5030714;28;20203;-84
2022/10/22 01:47:39;;;;;;;16.13;10.63;;;;;;;11.45;66.12;95349.38;5032389;28;20614;-86
2022/10/22 01:50:32;;;;;;;13.53;10.00;;;;;;;11.77;66.26;95397.94;5030376;28;20231;-84
2022/10/22 01:53:16;;;;;;;14.23;10.37;;;;;;;11.76;66.05;95404.03;5028871;28;20666;-85
2022/10/22 01:55:56;;;;;;;12.57;10.13;;;;;;;11.55;66.23;95380.97;5029179;28;20202;-85
2022/10/22 01:58:35;;;;;;;14.60;10.43;;;;;;;10.76;66.01;95256.03;5032147;28;20695;-84
2022/10/22 02:01:09;;;;;;;16.17;10.90;;;;;;;11.72;66.21;95406.03;5030263;28;20203;-85
2022/10/22 02:03:42;;;;;;;12.07;10.47;;;;;;;11.72;66.35;95411.16;5085217;28;20188;-83
2022/10/22 02:06:16;;;;;;;14.13;11.17;;;;;;;11.71;66.36;95414.66;5134146;28;20295;-83
2022/10/22 02:08:44;;;;;;;15.93;11.20;;;;;;;11.70;66.19;95419.88;5133762;28;20463;-84
2022/10/22 02:11:12;;;;;;;12.40;10.67;;;;;;;11.70;66.37;95412.19;5132980;28;20181;-84
2022/10/22 02:13:43;;;;;;;14.33;10.77;;;;;;;11.33;66.43;95356.31;5113265;28;20185;-83
2022/10/22 02:16:17;;;;;;;15.07;11.17;;;;;;;10.84;66.39;95272.47;5111451;28;20223;-84
2022/10/22 02:18:47;;;;;;;15.70;10.40;;;;;;;10.77;66.20;95259.38;5110976;28;20352;-84
2022/10/22 02:21:16;;;;;;;12.57;10.47;;;;;;;10.23;66.28;95171.66;5110745;28;20216;-83
2022/10/22 02:23:43;;;;;;;15.80;10.60;;;;;;;10.97;66.44;95285.94;5111335;28;20269;-84
2022/10/22 02:26:19;;;;;;;14.63;11.33;;;;;;;10.90;66.09;95272.81;5112175;28;20196;-85
2022/10/22 02:28:56;;;;;;;14.07;10.87;;;;;;;11.62;66.25;95400.03;5115616;28;20286;-85
2022/10/22 02:31:28;;;;;;;12.43;9.90;;;;;;;11.49;66.37;95382.31;5115850;28;20184;-85
2022/10/22 02:33:58;;;;;;;20.10;10.83;;;;;;;10.73;66.55;95270.81;5110647;28;20185;-85
2022/10/22 02:36:25;;;;;;;14.20;10.60;;;;;;;11.39;66.38;95380.63;5110372;28;20201;-84
2022/10/22 02:38:54;;;;;;;14.50;10.70;;;;;;;10.86;66.25;95299.56;5110079;28;20197;-85
2022/10/22 02:41:21;;;;;;;14.33;11.30;;;;;;;11.59;66.46;95419.97;5109933;28;20188;-85
2022/10/22 02:43:51;;;;;;;14.30;10.57;;;;;;;11.39;66.38;95398.53;5110462;28;20197;-85
2022/10/22 02:46:18;;;;;;;14.57;10.83;;;;;;;11.08;66.54;95351.59;5109863;28;20235;-85
2022/10/22 02:48:47;;;;;;;12.50;10.30;;;;;;;11.40;66.51;95405.28;5110161;28;20216;-84
2022/10/22 02:51:14;;;;;;;13.87;10.77;;;;;;;11.15;66.46;95361.19;5110593;28;20197;-85
2022/10/22 02:53:41;;;;;;;16.10;10.67;;;;;;;11.29;66.42;95378.00;5109219;28;20185;-85
2022/10/22 02:56:08;;;;;;;13.67;9.73;;;;;;;11.05;66.87;95345.78;5109801;28;20200;-84
2022/10/22 02:58:35;;;;;;;13.23;10.33;;;;;;;11.33;66.37;95381.94;5109666;28;20193;-86
2022/10/22 03:01:02;;;;;;;11.70;9.50;;;;;;;11.53;66.63;95406.72;5109989;28;20571;-84
2022/10/22 03:03:28;;;;;;;13.03;10.10;;;;;;;11.53;66.40;95403.38;5109972;28;20193;-84
2022/10/22 03:05:57;;;;;;;14.50;11.37;;;;;;;11.52;66.76;95425.56;5109504;28;20196;-84
2022/10/22 03:08:23;;;;;;;12.13;9.77;;;;;;;9.68;66.60;95127.53;5110408;28;20583;-84
2022/10/22 03:10:50;;;;;;;13.27;10.20;;;;;;;11.50;66.66;95419.78;5109113;28;20606;-84
2022/10/22 03:13:17;;;;;;;12.87;10.47;;;;;;;10.56;66.65;95269.59;5109702;28;20177;-85
2022/10/22 03:15:44;;;;;;;14.77;10.53;;;;;;;11.45;66.63;95406.53;5109467;28;20181;-85
2022/10/22 03:18:11;;;;;;;12.20;10.07;;;;;;;10.51;66.90;95261.50;5109961;28;20194;-84
2022/10/22 03:20:38;;;;;;;12.67;9.43;;;;;;;9.67;66.63;95123.34;5109856;28;20200;-85
2022/10/22 03:23:06;;;;;;;12.47;10.67;;;;;;;11.44;66.57;95401.53;5109590;28;20212;-86
2022/10/22 03:25:34;;;;;;;12.13;9.83;;;;;;;10.42;66.76;95240.03;5111589;28;20181;-85
2022/10/22 03:28:03;;;;;;;13.57;10.50;;;;;;;10.59;66.85;95271.13;5109477;28;20229;-84
2022/10/22 03:30:30;;;;;;;14.93;10.33;;;;;;;11.06;66.79;95338.91;5109112;28;20299;-84
2022/10/22 03:32:57;;;;;;;16.27;10.80;;;;;;;9.39;66.73;95088.16;5109621;28;20234;-83
2022/10/22 03:35:24;;;;;;;16.73;10.60;;;;;;;10.04;66.77;95182.53;5109100;28;20682;-85
2022/10/22 03:37:51;;;;;;;12.80;10.23;;;;;;;10.17;66.83;95192.59;5109502;28;20263;-84
2022/10/22 03:40:20;;;;;;;14.70;10.30;;;;;;;11.43;66.82;95393.03;5109455;28;20571;-84
2022/10/22 03:42:47;;;;;;;16.10;10.87;;;;;;;11.44;66.83;95393.84;5109314;28;20571;-85
2022/10/22 03:45:14;;;;;;;13.80;10.30;;;;;;;10.88;66.83;95309.69;5109792;28;20189;-85
2022/10/22 03:47:41;;;;;;;13.90;10.10;;;;;;;10.20;66.80;95205.13;5109712;28;20678;-85
2022/10/22 03:50:09;;;;;;;14.20;10.23;;;;;;;11.35;66.71;95384.34;5109642;28;20212;-86
2022/10/22 03:52:37;;;;;;;14.03;10.67;;;;;;;11.29;66.97;95395.91;5109562;28;20189;-85
2022/10/22 03:55:06;;;;;;;12.43;9.67;;;;;;;10.00;66.79;95178.59;5109912;28;20208;-86
2022/10/22 03:57:34;;;;;;;12.97;11.20;;;;;;;11.41;67.05;95402.59;5109653;28;20195;-85
2022/10/22 04:00:01;;;;;;;14.53;11.40;;;;;;;10.80;66.79;95315.44;5109937;28;20197;-86
2022/10/22 04:02:28;;;;;;;17.30;11.50;;;;;;;10.91;66.89;95329.91;5109673;28;20181;-86
2022/10/22 04:04:55;;;;;;;14.23;10.53;;;;;;;11.40;67.19;95395.88;5109763;28;20628;-85
2022/10/22 04:07:22;;;;;;;15.53;10.90;;;;;;;11.10;67.24;95337.72;5109645;28;20186;-87
2022/10/22 04:09:49;;;;;;;16.17;10.43;;;;;;;11.41;67.04;95394.94;5109319;28;20600;-85
2022/10/22 04:12:16;;;;;;;16.80;10.23;;;;;;;11.42;66.92;95399.09;5109379;28;20208;-85
2022/10/22 04:14:44;;;;;;;13.17;10.47;;;;;;;11.42;66.96;95396.53;5107551;28;20265;-84
2022/10/22 04:17:11;;;;;;;14.83;10.93;;;;;;;10.32;66.83;95216.16;5088908;28;20194;-86
2022/10/22 04:19:40;;;;;;;21.57;11.67;;;;;;;11.07;66.69;95325.19;5089535;28;20577;-86
2022/10/22 04:22:07;;;;;;;12.17;10.23;;;;;;;10.38;66.84;95217.41;5091316;28;20197;-84
2022/10/22 04:24:34;;;;;;;15.53;11.50;;;;;;;11.47;67.05;95379.03;5091713;28;20224;-85
2022/10/22 04:27:01;;;;;;;14.40;10.43;;;;;;;11.50;66.91;95381.38;5096846;28;20302;-84
2022/10/22 04:29:28;;;;;;;16.50;9.73;;;;;;;11.53;66.84;95398.25;5096357;28;20228;-85
2022/10/22 04:31:56;;;;;;;15.23;10.63;;;;;;;10.67;66.81;95243.97;5092137;28;20193;-85
2022/10/22 04:34:23;;;;;;;14.10;10.37;;;;;;;11.56;66.90;95387.72;5092763;28;20198;-86
2022/10/22 04:36:50;;;;;;;13.30;11.30;;;;;;;11.35;66.87;95359.56;5093778;28;20200;-87
2022/10/22 04:39:16;;;;;;;14.27;10.70;;;;;;;11.60;67.07;95388.28;5099130;28;20212;-86
2022/10/22 04:41:43;;;;;;;17.70;10.90;;;;;;;10.86;66.83;95268.88;5112919;28;20230;-86
2022/10/22 04:44:10;;;;;;;14.47;11.10;;;;;;;11.17;67.07;95317.56;5112313;28;20193;-85
2022/10/22 04:46:37;;;;;;;12.57;10.63;;;;;;;10.44;66.85;95204.09;5112647;28;20224;-86
2022/10/22 04:49:05;;;;;;;13.87;10.40;;;;;;;11.68;66.95;95396.16;5112388;28;20199;-85
2022/10/22 04:51:32;;;;;;;17.10;10.90;;;;;;;11.49;66.87;95356.69;5113526;28;20205;-85
2022/10/22 04:53:59;;;;;;;15.90;11.03;;;;;;;11.27;66.76;95324.38;5113266;28;20205;-85
2022/10/22 04:56:28;;;;;;;12.83;10.30;;;;;;;11.74;66.69;95406.72;5113025;28;20204;-85
2022/10/22 04:58:59;;;;;;;16.23;11.80;;;;;;;11.55;66.72;95368.19;5113782;28;20375;-86
2022/10/22 05:01:27;;;;;;;15.43;10.53;;;;;;;11.77;66.54;95403.88;5113205;28;20201;-86
2022/10/22 05:03:56;;;;;;;14.33;10.60;;;;;;;11.84;66.71;95403.41;5112736;28;20201;-86
2022/10/22 05:06:25;;;;;;;15.20;10.07;;;;;;;9.96;66.39;95102.31;5113439;28;20193;-85
2022/10/22 05:08:54;;;;;;;12.90;9.83;;;;;;;10.46;66.51;95184.34;5112164;28;20197;-86
2022/10/22 05:11:24;;;;;;;13.77;10.70;;;;;;;11.93;66.53;95429.09;5111816;28;20320;-86
2022/10/22 05:13:51;;;;;;;12.93;10.23;;;;;;;11.83;66.38;95405.19;5112781;28;20189;-87
2022/10/22 05:16:18;;;;;;;15.23;10.77;;;;;;;10.35;66.43;95163.94;5112844;28;20188;-86
2022/10/22 05:18:45;;;;;;;13.87;10.93;;;;;;;11.53;66.33;95354.69;5114155;28;20193;-86
2022/10/22 05:21:16;;;;;;;17.00;11.13;;;;;;;12.03;66.60;95429.94;5112416;28;20216;-86
2022/10/22 05:23:45;;;;;;;16.47;11.03;;;;;;;11.20;66.50;95284.03;5111632;28;20191;-86
2022/10/22 05:26:14;;;;;;;16.20;11.03;;;;;;;11.58;66.24;95346.63;5111487;28;20196;-84
2022/10/22 05:28:41;;;;;;;14.80;10.67;;;;;;;11.34;66.28;95300.78;5111716;28;20260;-86
2022/10/22 05:31:11;;;;;;;18.23;11.27;;;;;;;11.29;66.21;95298.63;5112225;28;20686;-86
2022/10/22 05:33:39;;;;;;;15.20;10.77;;;;;;;12.16;66.04;95432.28;5112255;28;20197;-86
2022/10/22 05:36:07;;;;;;;15.47;10.70;;;;;;;11.82;66.21;95372.75;5112442;28;20196;-86
2022/10/22 05:38:35;;;;;;;15.50;11.67;;;;;;;12.23;66.26;95430.84;5111704;28;20185;-85
2022/10/22 05:41:05;;;;;;;16.67;12.13;;;;;;;12.27;66.03;95428.84;5111353;28;20204;-86
2022/10/22 05:43:33;;;;;;;17.87;11.27;;;;;;;12.30;66.03;95428.53;5112534;28;20189;-86
2022/10/22 05:46:03;;;;;;;15.67;11.20;;;;;;;12.36;65.98;95425.47;5113026;28;20612;-87
2022/10/22 05:48:30;;;;;;;16.60;11.43;;;;;;;12.34;65.89;95408.59;5112282;28;20177;-86
2022/10/22 05:51:03;;;;;;;16.57;12.13;;;;;;;12.00;66.05;95355.03;5111172;28;20221;-86
2022/10/22 05:53:30;;;;;;;16.20;11.13;;;;;;;12.47;65.63;95412.53;5111313;28;20193;-87
2022/10/22 05:55:59;;;;;;;17.57;13.13;;;;;;;11.29;65.47;95201.31;5111798;28;20648;-86
2022/10/22 05:58:28;;;;;;;14.40;11.57;;;;;;;11.22;65.11;95177.16;5112826;28;20189;-87
2022/10/22 06:00:54;;;;;;;17.47;12.77;;;;;;;11.45;65.42;95205.97;5120380;28;20197;-84
2022/10/22 06:03:21;;;;;;;16.90;11.50;;;;;;;12.57;65.25;95376.66;5115224;28;20287;-83
2022/10/22 06:05:48;;;;;;;19.60;12.90;;;;;;;12.40;65.12;95342.19;5112261;28;20185;-84
2022/10/22 06:08:15;;;;;;;20.53;13.30;;;;;;;13.05;64.98;95442.63;5110747;28;20189;-85
2022/10/22 06:10:44;;;;;;;27.73;13.00;;;;;;;12.27;64.95;95296.28;5110983;28;20235;-84
2022/10/22 06:13:10;;;;;;;18.97;12.73;;;;;;;13.30;64.53;95419.00;5109152;28;20205;-84
2022/10/22 06:15:38;;;;;;;18.93;12.63;;;;;;;13.73;64.85;95429.75;5111007;28;20552;-88
2022/10/22 06:18:05;;;;;;;13.57;11.17;;;;;;;14.16;65.43;95433.53;5110888;28;20185;-84
2022/10/22 06:20:34;;;;;;;17.90;12.87;;;;;;;14.65;65.59;95441.91;5112092;28;20193;-84
2022/10/22 06:23:01;;;;;;;16.87;12.70;;;;;;;14.98;65.23;95412.97;5110290;28;20189;-82
2022/10/22 06:25:27;;;;;;;17.77;13.00;;;;;;;15.68;64.85;95441.41;5111600;28;20196;-88
2022/10/22 06:27:54;;;;;;;16.90;13.17;;;;;;;14.70;64.36;95193.34;5104265;28;20213;-85
2022/10/22 06:30:21;;;;;;;15.30;11.93;;;;;;;15.91;63.64;95281.78;5084279;28;20914;-92
2022/10/22 06:32:49;;;;;;;23.83;11.70;;;;;;;17.42;69.82;95427.22;5070187;28;20201;-85
2022/10/22 06:35:17;;;;;;;16.50;10.27;;;;;;;18.03;73.52;95449.97;5070320;28;20197;-83
2022/10/22 06:37:46;;;;;;;15.40;10.80;;;;;;;18.56;73.78;95452.91;5070130;28;20541;-85
2022/10/22 06:40:17;;;;;;;11.60;9.13;;;;;;;18.19;72.18;95300.78;5071639;28;20190;-81
2022/10/22 06:42:44;;;;;;;13.17;9.67;;;;;;;19.45;71.06;95415.28;5090086;28;20229;-79
2022/10/22 06:45:11;;;;;;;10.90;8.10;;;;;;;19.76;69.40;95398.84;5091249;28;20194;-81
2022/10/22 06:47:38;;;;;;;14.53;8.50;;;;;;;20.49;68.01;95444.03;5085912;28;20185;-81
2022/10/22 06:50:07;;;;;;;12.17;8.30;;;;;;;20.67;67.00;95409.88;5103356;28;20204;-87
2022/10/22 06:52:34;;;;;;;15.87;8.47;;;;;;;21.22;65.52;95442.28;5106291;28;20185;-82
2022/10/22 06:55:01;;;;;;;19.80;8.57;;;;;;;21.34;64.41;95414.00;5096090;28;20190;-83
2022/10/22 06:57:28;;;;;;;10.55;7.78;;;;;;;21.84;63.47;95443.44;5090036;28;20178;-82
2022/10/22 06:59:54;;;;;;;16.48;9.27;;;;;;;22.09;62.47;95447.22;5089795;28;20564;-81
2022/10/22 07:02:21;;;;;;;10.25;8.75;;;;;;;22.33;61.68;95450.41;5090050;28;20182;-82
2022/10/22 07:04:48;;;;;;;14.48;9.20;;;;;;;22.31;61.22;95418.50;5089712;28;20186;-80
2022/10/22 07:07:16;;;;;;;15.05;9.80;;;;;;;21.15;60.64;95209.88;5089776;28;20690;-85
2022/10/22 07:09:45;;;;;;;14.27;8.38;;;;;;;22.91;60.18;95451.69;5090521;28;20300;-89
2022/10/22 07:12:12;;;;;;;12.65;9.25;;;;;;;22.52;60.41;95350.63;5091382;28;20241;-88
2022/10/22 07:14:39;;;;;;;17.58;9.25;;;;;;;23.28;60.53;95444.38;5103607;28;20196;-89
2022/10/22 07:17:06;;;;;;;11.48;9.65;;;;;;;23.44;60.24;95441.38;5101277;28;20664;-85
2022/10/22 07:19:33;;;;;;;17.67;9.60;;;;;;;22.29;59.61;95244.91;5110483;28;20656;-88
2022/10/22 07:22:00;;;;;;;23.85;9.68;;;;;;;23.63;59.29;95429.38;5094215;28;20197;-88
2022/10/22 07:24:29;;;;;;;13.27;9.80;;;;;;;23.83;58.88;95434.59;5108236;28;20192;-81
2022/10/22 07:26:56;;;;;;;12.73;9.52;;;;;;;24.02;54.64;95439.03;5095239;28;20221;-80
2022/10/22 07:29:23;;;;;;;17.83;9.43;;;;;;;24.31;53.36;95447.44;5110101;28;20195;-83
2022/10/22 07:31:49;;;;;;;11.15;9.38;;;;;;;24.48;52.11;95429.50;5110115;28;20722;-79
2022/10/22 07:34:16;;;;;;;17.08;9.68;;;;;;;24.90;50.95;95438.59;5110009;28;20189;-79
2022/10/22 07:36:43;;;;;;;11.45;9.20;;;;;;;25.16;50.16;95434.25;5108923;28;20185;-78
2022/10/22 07:39:10;;;;;;;22.23;9.35;;;;;;;25.39;49.87;95434.53;5109860;28;20215;-76
2022/10/22 07:41:38;;;;;;;20.50;9.80;;;;;;;25.54;49.32;95423.75;5109541;28;20570;-78
2022/10/22 07:44:05;;;;;;;12.45;9.38;;;;;;;25.60;48.95;95403.75;5109695;28;20665;-77
2022/10/22 07:46:34;;;;;;;14.10;9.25;;;;;;;25.92;48.16;95428.13;5109867;28;20197;-77
2022/10/22 07:49:00;;;;;;;12.05;9.20;;;;;;;25.92;48.18;95397.47;5110059;28;20303;-77
2022/10/22 07:51:27;;;;;;;10.95;8.95;;;;;;;26.26;47.31;95424.16;5109618;28;20247;-78
2022/10/22 07:53:54;;;;;;;12.60;9.00;;;;;;;26.38;46.69;95419.81;5109714;28;20193;-79
2022/10/22 07:56:22;;;;;;;11.65;8.88;;;;;;;26.45;46.74;95414.50;5110381;28;20193;-78
2022/10/22 07:58:50;;;;;;;15.45;9.63;;;;;;;26.44;47.20;95415.53;5110332;28;20620;-78
2022/10/22 08:01:17;;;;;;;13.55;9.07;;;;;;;26.35;47.39;95416.81;5113815;28;20216;-78
2022/10/22 08:03:44;;;;;;;13.45;10.30;;;;;;;26.22;47.26;95417.75;5113310;28;20197;-78
2022/10/22 08:06:13;;;;;;;13.02;9.85;;;;;;;25.87;46.73;95383.41;5113367;28;20555;-77
2022/10/22 08:08:40;;;;;;;12.48;9.90;;;;;;;25.90;46.58;95409.97;5113441;28;20221;-77
2022/10/22 08:11:07;;;;;;;12.57;10.05;;;;;;;25.72;46.68;95408.06;5113428;28;20221;-78
2022/10/22 08:13:33;;;;;;;15.00;10.30;;;;;;;25.55;46.46;95411.44;5113087;28;20185;-77
2022/10/22 08:16:02;;;;;;;15.95;9.88;;;;;;;25.36;46.07;95413.19;5113231;28;20208;-80
2022/10/22 08:18:29;;;;;;;13.63;10.35;;;;;;;25.19;46.12;95407.66;5112824;28;20185;-77
2022/10/22 08:20:56;;;;;;;17.95;10.40;;;;;;;25.03;46.06;95409.72;5113274;28;20189;-77
2022/10/22 08:23:23;;;;;;;13.00;10.15;;;;;;;24.87;46.22;95401.56;5113272;28;20185;-77
2022/10/22 08:25:50;;;;;;;15.32;11.30;;;;;;;24.61;46.26;95371.94;5112987;28;20188;-78
2022/10/22 08:28:17;;;;;;;13.50;10.52;;;;;;;24.16;45.92;95324.78;5112572;28;20274;-77
2022/10/22 08:30:46;;;;;;;14.00;9.70;;;;;;;24.42;46.28;95389.28;5117965;28;20228;-78
2022/10/22 08:33:15;;;;;;;13.13;10.95;;;;;;;24.29;45.82;95389.28;5118137;28;20185;-78
2022/10/22 08:35:41;;;;;;;16.38;11.50;;;;;;;24.15;45.95;95399.00;5115690;28;20205;-78
2022/10/22 08:38:08;;;;;;;13.02;11.20;;;;;;;24.00;45.93;95395.78;5116811;28;20674;-78
2022/10/22 08:40:39;;;;;;;16.15;11.60;;;;;;;23.65;45.70;95362.06;5116043;28;20208;-78
2022/10/22 08:43:39;;;;;;;15.90;11.45;;;;;;;23.68;46.04;95389.63;5113458;28;20193;-77
2022/10/22 08:46:21;;;;;;;16.80;10.88;;;;;;;23.60;45.73;95397.63;5107822;28;20666;-78
2022/10/22 08:48:53;;;;;;;19.17;11.38;;;;;;;23.48;45.79;95397.41;5112529;28;20196;-79
2022/10/22 08:51:23;;;;;;;15.77;11.45;;;;;;;23.37;45.62;95393.59;5112719;28;20266;-78
2022/10/22 08:54:13;;;;;;;12.80;10.32;;;;;;;23.27;45.60;95398.38;5112422;28;20192;-79
2022/10/22 08:56:44;;;;;;;13.35;10.98;;;;;;;23.16;45.75;95397.19;5113199;28;20196;-77
2022/10/22 08:59:17;;;;;;;13.90;10.05;;;;;;;23.07;45.58;95400.97;5112840;28;20189;-78
2022/10/22 09:01:47;;;;;;;12.90;10.35;;;;;;;22.91;45.90;95383.88;5112789;28;20642;-77
2022/10/22 09:04:24;;;;;;;15.32;10.73;;;;;;;22.84;45.76;95384.81;5112610;28;20192;-79
2022/10/22 09:06:52;;;;;;;11.20;9.38;;;;;;;22.84;45.73;95390.03;5112233;28;20246;-78
2022/10/22 09:09:20;;;;;;;14.75;10.82;;;;;;;22.46;45.61;95341.00;5112305;28;20200;-77
2022/10/22 09:11:49;;;;;;;15.70;10.88;;;;;;;22.68;45.78;95378.97;5111877;27;20216;-77
2022/10/22 09:14:19;;;;;;;13.15;10.95;;;;;;;22.62;45.80;95382.34;5112243;28;20200;-78
2022/10/22 09:17:12;;;;;;;16.65;10.82;;;;;;;22.56;45.82;95377.13;5112351;28;20181;-79
2022/10/22 09:19:50;;;;;;;13.40;10.32;;;;;;;22.45;45.61;95370.66;5112368;28;20192;-79
2022/10/22 09:22:29;;;;;;;14.50;11.00;;;;;;;22.44;45.64;95374.25;5112016;28;20192;-76
2022/10/22 09:24:59;;;;;;;14.23;11.43;;;;;;;22.40;45.84;95370.44;5112580;28;20196;-79
2022/10/22 09:27:28;;;;;;;13.65;10.85;;;;;;;22.36;45.71;95364.00;5112820;28;20217;-78
2022/10/22 09:29:54;;;;;;;13.95;10.85;;;;;;;22.32;45.63;95366.19;5112647;28;20192;-77
2022/10/22 09:32:21;;;;;;;15.18;10.85;;;;;;;22.28;45.75;95362.38;5111366;28;20205;-76
2022/10/22 09:34:50;;;;;;;14.02;10.48;;;;;;;22.24;45.77;95361.97;5111899;28;20648;-77
2022/10/22 09:37:19;;;;;;;13.70;10.93;;;;;;;22.15;45.83;95357.09;5111684;28;20204;-78
2022/10/22 09:39:48;;;;;;;14.07;11.07;;;;;;;22.16;45.71;95356.91;5112098;28;20193;-77
2022/10/22 09:42:17;;;;;;;12.25;10.35;;;;;;;22.15;45.72;95354.47;5111529;28;20184;-77
2022/10/22 09:44:52;;;;;;;14.65;10.38;;;;;;;22.00;45.65;95331.94;5111809;28;20220;-78
2022/10/22 09:47:33;;;;;;;18.60;10.77;;;;;;;22.09;45.85;95337.00;5111035;28;20216;-78
2022/10/22 09:50:22;;;;;;;12.82;10.85;;;;;;;22.01;45.95;95327.53;5112100;28;20188;-76
2022/10/22 09:52:58;;;;;;;12.10;10.80;;;;;;;21.75;45.97;95281.31;5111329;28;20306;-78
2022/10/22 09:55:26;;;;;;;14.00;10.75;;;;;;;22.02;45.89;95334.34;5111548;28;20192;-79
2022/10/22 09:57:54;;;;;;;16.33;11.85;;;;;;;22.01;46.00;95343.97;5111515;28;20230;-78
2022/10/22 10:00:23;;;;;;;13.90;11.27;;;;;;;21.99;45.90;95338.16;5110971;28;20216;-76
2022/10/22 10:02:55;;;;;;;17.65;11.40;;;;;;;21.88;46.21;95317.84;5111184;28;20197;-79
2022/10/22 10:05:28;;;;;;;13.02;11.43;;;;;;;21.99;46.04;95324.34;5110792;28;20660;-78
2022/10/22 10:07:55;;;;;;;13.25;11.13;;;;;;;21.98;46.10;95320.13;5110978;28;20512;-79
2022/10/22 10:10:31;;;;;;;15.20;11.90;;;;;;;21.84;46.04;95300.19;5110883;28;20224;-76
2022/10/22 10:13:08;;;;;;;16.50;10.88;;;;;;;21.89;46.22;95313.44;5110941;28;20865;-77
2022/10/22 10:15:42;;;;;;;14.75;11.75;;;;;;;21.87;46.19;95323.25;5110704;28;20192;-76
2022/10/22 10:18:23;;;;;;;17.25;12.07;;;;;;;21.86;46.07;95327.66;5110738;28;20181;-78
2022/10/22 10:20:58;;;;;;;16.52;10.82;;;;;;;21.88;46.03;95315.25;5110248;28;20567;-78
2022/10/22 10:23:31;;;;;;;12.13;10.90;;;;;;;21.87;45.94;95308.44;5110354;28;20756;-77
2022/10/22 10:26:04;;;;;;;13.90;11.23;;;;;;;21.85;46.37;95309.63;5110094;28;20655;-77
2022/10/22 10:28:55;;;;;;;17.55;11.25;;;;;;;21.85;46.32;95304.41;5110422;28;20225;-77
2022/10/22 10:31:35;;;;;;;12.88;10.88;;;;;;;21.85;46.08;95305.25;5027607;28;20239;-79
2022/10/22 10:34:14;;;;;;;13.10;10.98;;;;;;;21.79;46.37;95296.38;5027753;28;20624;-78
2022/10/22 10:36:52;;;;;;;14.13;11.20;;;;;;;21.81;46.13;95287.59;5027782;28;20203;-77
2022/10/22 10:39:25;;;;;;;13.95;11.20;;;;;;;21.88;46.23;95293.63;5027400;28;20188;-79
2022/10/22 10:41:59;;;;;;;15.38;11.27;;;;;;;21.87;46.10;95284.19;5027663;28;20273;-79
2022/10/22 10:44:53;;;;;;;15.00;11.13;;;;;;;21.82;46.36;95269.16;5027403;28;20184;-78
2022/10/22 10:47:38;;;;;;;13.02;10.85;;;;;;;21.87;46.38;95274.59;5027366;28;20207;-77
2022/10/22 10:50:18;;;;;;;13.98;10.98;;;;;;;21.88;46.41;95268.38;5028105;28;20202;-78
2022/10/22 10:53:01;;;;;;;15.00;10.63;;;;;;;21.72;46.19;95240.88;5028168;28;20710;-80
2022/10/22 10:55:32;;;;;;;14.93;11.20;;;;;;;21.83;46.40;95249.13;5011084;28;20266;-78
2022/10/22 10:58:12;;;;;;;13.68;11.52;;;;;;;21.82;46.29;95243.13;5028853;28;20192;-79
2022/10/22 11:00:50;;;;;;;12.68;10.40;;;;;;;21.73;46.30;95211.22;5027764;28;20222;-78
2022/10/22 11:03:45;;;;;;;14.73;11.50;;;;;;;21.89;46.14;95237.91;5027447;28;20202;-78
2022/10/22 11:06:14;;;;;;;13.10;10.88;;;;;;;21.88;46.42;95231.13;5027126;28;20199;-77
2022/10/22 11:08:48;;;;;;;14.43;10.80;;;;;;;21.88;46.18;95224.09;5076550;28;20193;-78
2022/10/22 11:11:21;;;;;;;15.23;11.25;;;;;;;21.68;46.40;95184.19;5109602;28;20276;-80
2022/10/22 11:13:53;;;;;;;14.90;10.73;;;;;;;21.89;46.22;95220.53;5110282;28;20192;-78
2022/10/22 11:16:24;;;;;;;16.35;10.02;;;;;;;21.89;46.22;95212.72;5110549;28;20185;-78
2022/10/22 11:18:58;;;;;;;11.32;10.23;;;;;;;21.90;46.34;95211.69;5109925;28;20200;-79
2022/10/22 11:21:29;;;;;;;13.30;10.65;;;;;;;21.65;46.35;95153.31;5110077;28;20204;-78
2022/10/22 11:24:03;;;;;;;16.67;11.00;;;;;;;21.73;46.18;95174.78;5109690;28;20572;-78
2022/10/22 11:26:38;;;;;;;12.32;10.82;;;;;;;21.92;46.20;95201.88;5110393;28;20191;-78
2022/10/22 11:29:11;;;;;;;13.88;9.57;;;;;;;21.73;46.19;95166.19;5109665;28;20246;-76
2022/10/22 11:31:40;;;;;;;13.70;10.23;;;;;;;21.77;46.24;95170.78;5110477;28;20692;-79
2022/10/22 11:34:16;;;;;;;14.60;10.95;;;;;;;21.92;46.18;95191.47;5113444;28;20181;-78